Espanola, Washington
Current Conditions -  °F | °C
As of 12:35 AM on Friday 19 Dec 2014 (Local Time) from KSKA Reporting Station
Light Rain Light Rain  
Wind Chill: 34°   Ceiling: 6000
Heat Index: 39°   Visibility: 10mi
Dew Point: 37°   Wind: 7mph
Humidity: 93%   Direction: 110°ESE
Pressure: 29.89"   Gusts: NA
Location:  47.6094°N, 117.705°W
Report Text: KSKA 190835Z AUTO 11006KT 10SM -RA SCT039 SCT048 OVC060 04/03 A2989 RMK AO2 RAE03DZB03E19RAB35
Loading
Personal Weather Stations






























Interactive Weather Map New forecast layout! Learn more

10-Day Weather Forecast

Advertisements
Track Severe Weather on mobile